Time;durP1;ratioP1;P1;durP2;ratioP2;P2;SDS_P1;SDS_P2;PMS_P1;PMS_P2;Temp;Humidity;BMP_temperature;BMP_pressure;BME280_temperature;BME280_humidity;BME280_pressure;Samples;Min_cycle;Max_cycle;Signal;HPM_P1;HPM_P2
2022/10/08 00:00:45;;;;;;;3.97;3.43;;;10.40;99.90;;;;;;5010345;28;20969;-52
2022/10/08 00:03:12;;;;;;;3.33;3.03;;;9.90;99.90;;;;;;5010521;28;20451;-52
2022/10/08 00:05:40;;;;;;;3.00;2.70;;;10.00;99.90;;;;;;5010415;28;20977;-51
2022/10/08 00:08:07;;;;;;;4.90;3.37;;;10.30;99.90;;;;;;5010380;28;20483;-51
2022/10/08 00:10:36;;;;;;;3.77;2.80;;;10.50;99.90;;;;;;5010360;28;20539;-52
2022/10/08 00:13:04;;;;;;;4.53;2.90;;;10.70;99.90;;;;;;5010187;28;20455;-51
2022/10/08 00:15:35;;;;;;;3.23;3.03;;;10.80;99.90;;;;;;5009802;28;20471;-52
2022/10/08 00:18:02;;;;;;;3.10;2.80;;;10.80;99.90;;;;;;5010262;28;20454;-51
2022/10/08 00:20:29;;;;;;;7.20;3.70;;;10.80;99.90;;;;;;5010321;28;20530;-52
2022/10/08 00:22:56;;;;;;;5.83;2.73;;;10.50;99.90;;;;;;5009811;28;20482;-51
2022/10/08 00:25:23;;;;;;;6.17;2.73;;;9.80;99.90;;;;;;5010092;28;20999;-51
2022/10/08 00:27:51;;;;;;;3.30;2.97;;;9.70;99.90;;;;;;5010152;28;20485;-52
2022/10/08 00:30:18;;;;;;;2.70;2.43;;;10.10;99.90;;;;;;5010236;28;20519;-52
2022/10/08 00:32:44;;;;;;;3.13;2.83;;;10.40;99.90;;;;;;5010056;28;20481;-51
2022/10/08 00:35:11;;;;;;;3.50;3.20;;;10.50;99.90;;;;;;5010370;28;20468;-51
2022/10/08 00:37:38;;;;;;;3.20;2.90;;;10.60;99.90;;;;;;5009942;28;20481;-52
2022/10/08 00:40:06;;;;;;;2.80;2.60;;;10.40;99.90;;;;;;5009700;28;20536;-51
2022/10/08 00:42:33;;;;;;;2.87;2.63;;;10.40;99.90;;;;;;5009991;28;20450;-51
2022/10/08 00:45:01;;;;;;;3.50;2.63;;;10.30;99.90;;;;;;5009982;28;20650;-51
2022/10/08 00:47:41;;;;;;;3.87;2.60;;;10.30;99.90;;;;;;5009912;28;20475;-51
2022/10/08 00:50:14;;;;;;;4.20;3.00;;;10.30;99.90;;;;;;5010056;28;20452;-51
2022/10/08 00:52:44;;;;;;;4.20;2.90;;;10.30;99.90;;;;;;5010114;28;20455;-51
2022/10/08 00:55:13;;;;;;;3.77;2.90;;;10.50;99.90;;;;;;5009541;28;20837;-51
2022/10/08 00:57:42;;;;;;;2.87;2.63;;;10.70;99.90;;;;;;5009758;28;20446;-51
2022/10/08 01:00:14;;;;;;;2.40;1.93;;;10.90;99.90;;;;;;5009689;28;20448;-51
2022/10/08 01:02:41;;;;;;;6.20;3.53;;;11.00;99.90;;;;;;5009591;28;20922;-51
2022/10/08 01:05:10;;;;;;;3.00;2.60;;;10.80;99.90;;;;;;5009199;28;20855;-52
2022/10/08 01:07:48;;;;;;;3.97;2.40;;;10.60;99.90;;;;;;5009507;28;21079;-51
2022/10/08 01:10:26;;;;;;;6.83;2.70;;;10.60;99.90;;;;;;5009559;28;20618;-51
2022/10/08 01:13:05;;;;;;;3.47;2.83;;;10.70;99.90;;;;;;5009368;28;20446;-51
2022/10/08 01:15:40;;;;;;;4.60;3.17;;;10.70;99.90;;;;;;5009596;28;20474;-53
2022/10/08 01:18:13;;;;;;;6.03;2.63;;;10.70;99.90;;;;;;5009580;28;20539;-52
2022/10/08 01:20:51;;;;;;;3.33;2.50;;;10.60;99.90;;;;;;5009289;28;20938;-51
2022/10/08 01:23:57;;;;;;;3.57;3.00;;;10.50;99.90;;;;;;5008597;28;20492;-51
2022/10/08 01:26:42;;;;;;;2.87;2.50;;;10.40;99.90;;;;;;5014822;28;20475;-52
2022/10/08 01:29:16;;;;;;;4.60;2.90;;;10.30;99.90;;;;;;5009344;28;20517;-51
2022/10/08 01:31:47;;;;;;;2.60;2.40;;;10.50;99.90;;;;;;5009330;28;20443;-52
2022/10/08 01:34:19;;;;;;;3.23;2.50;;;10.60;99.90;;;;;;5009224;28;20864;-52
2022/10/08 01:36:49;;;;;;;4.50;3.07;;;10.30;99.90;;;;;;5008944;28;20552;-51
2022/10/08 01:39:18;;;;;;;3.23;2.50;;;10.30;99.90;;;;;;5009186;28;20872;-52
2022/10/08 01:41:50;;;;;;;3.03;2.73;;;10.40;99.90;;;;;;5008936;28;20448;-51
2022/10/08 01:44:24;;;;;;;3.00;2.50;;;10.30;99.90;;;;;;5009188;28;20444;-51
2022/10/08 01:46:57;;;;;;;3.20;2.60;;;10.40;99.90;;;;;;5008776;28;20474;-51
2022/10/08 01:49:28;;;;;;;5.17;2.27;;;10.30;99.90;;;;;;5009159;28;20451;-51
2022/10/08 01:51:58;;;;;;;3.60;2.50;;;10.50;99.90;;;;;;5009013;28;20447;-51
2022/10/08 01:54:28;;;;;;;2.90;2.37;;;10.60;99.90;;;;;;5008349;28;20860;-51
2022/10/08 01:57:00;;;;;;;3.50;2.70;;;10.50;99.90;;;;;;5068990;23;20491;-48
2022/10/08 01:59:33;;;;;;;3.17;2.90;;;10.10;99.90;;;;;;5008950;28;20450;-51
2022/10/08 02:02:05;;;;;;;3.47;2.97;;;10.30;99.90;;;;;;5008716;28;20479;-48
2022/10/08 02:04:33;;;;;;;3.20;2.57;;;10.20;99.90;;;;;;5008610;28;20454;-48
2022/10/08 02:07:03;;;;;;;6.50;3.30;;;10.00;99.90;;;;;;5008677;28;20519;-48
2022/10/08 02:09:34;;;;;;;2.90;2.67;;;9.90;99.90;;;;;;5008641;28;20861;-48
2022/10/08 02:12:01;;;;;;;3.07;2.77;;;9.90;99.90;;;;;;5008689;28;20962;-47
2022/10/08 02:14:31;;;;;;;3.30;2.70;;;10.20;99.90;;;;;;5008567;28;20536;-48
2022/10/08 02:17:06;;;;;;;2.67;2.40;;;10.40;99.90;;;;;;5008329;28;20460;-50
2022/10/08 02:19:44;;;;;;;2.83;2.20;;;10.30;99.90;;;;;;5008654;28;20985;-50
2022/10/08 02:22:15;;;;;;;3.00;2.70;;;10.20;99.90;;;;;;5008205;28;20443;-48
2022/10/08 02:24:47;;;;;;;2.90;2.70;;;10.30;99.90;;;;;;5008339;28;20935;-47
2022/10/08 02:27:17;;;;;;;3.53;2.50;;;10.40;99.90;;;;;;5008346;28;20482;-48
2022/10/08 02:29:52;;;;;;;2.77;2.53;;;10.40;99.90;;;;;;5008174;28;20964;-48
2022/10/08 02:32:28;;;;;;;2.47;2.23;;;10.50;99.90;;;;;;5008465;28;20504;-50
2022/10/08 02:34:59;;;;;;;4.03;2.63;;;10.60;99.90;;;;;;5008111;28;20483;-50
2022/10/08 02:37:31;;;;;;;3.13;2.50;;;10.60;99.90;;;;;;5009337;28;20443;-48
2022/10/08 02:40:02;;;;;;;3.80;3.00;;;10.50;99.90;;;;;;5011677;28;20530;-48
2022/10/08 02:42:32;;;;;;;3.93;2.60;;;10.20;99.90;;;;;;5011944;28;20450;-48
2022/10/08 02:45:06;;;;;;;2.80;2.50;;;10.00;99.90;;;;;;5011438;28;20439;-48
2022/10/08 02:47:36;;;;;;;3.60;2.20;;;9.70;99.90;;;;;;5011594;28;20518;-48
2022/10/08 02:50:08;;;;;;;3.20;2.90;;;9.50;99.90;;;;;;5011872;28;20448;-48
2022/10/08 02:52:39;;;;;;;3.47;2.57;;;9.80;99.90;;;;;;5011640;28;20954;-48
2022/10/08 02:55:18;;;;;;;2.97;2.70;;;9.80;99.90;;;;;;5011380;28;20443;-47
2022/10/08 02:57:50;;;;;;;4.00;2.63;;;9.90;99.90;;;;;;5011775;28;20850;-51
2022/10/08 03:00:19;;;;;;;3.60;2.40;;;9.80;99.90;;;;;;5011818;28;20964;-49
2022/10/08 03:02:52;;;;;;;5.33;2.47;;;10.00;99.90;;;;;;5011506;28;20526;-47
2022/10/08 03:05:20;;;;;;;2.93;2.67;;;10.10;99.90;;;;;;5011818;28;20472;-48
2022/10/08 03:07:50;;;;;;;3.03;2.60;;;10.20;99.90;;;;;;5011601;28;20558;-49
2022/10/08 03:10:18;;;;;;;3.40;2.73;;;10.30;99.90;;;;;;5011785;28;20952;-48
2022/10/08 03:12:46;;;;;;;6.77;3.03;;;10.30;99.90;;;;;;5011592;28;20512;-48
2022/10/08 03:15:14;;;;;;;3.17;2.60;;;10.30;99.90;;;;;;5010960;28;20471;-47
2022/10/08 03:17:46;;;;;;;4.00;2.70;;;10.00;99.90;;;;;;5011182;28;20810;-48
2022/10/08 03:20:14;;;;;;;3.57;3.07;;;10.00;99.90;;;;;;5011654;28;20447;-48
2022/10/08 03:22:41;;;;;;;4.60;3.40;;;10.10;99.90;;;;;;5010742;28;21034;-49
2022/10/08 03:25:08;;;;;;;3.30;2.40;;;10.10;99.90;;;;;;5010812;28;21208;-48
2022/10/08 03:27:35;;;;;;;3.37;2.93;;;10.00;99.90;;;;;;5010751;28;20478;-48
2022/10/08 03:30:02;;;;;;;3.13;2.77;;;10.00;99.90;;;;;;5011353;28;20454;-48
2022/10/08 03:32:29;;;;;;;2.50;2.30;;;10.00;99.90;;;;;;5011037;28;20969;-51
2022/10/08 03:34:57;;;;;;;2.90;2.70;;;10.00;99.90;;;;;;5011004;28;20484;-48
2022/10/08 03:37:24;;;;;;;3.00;2.53;;;10.00;99.90;;;;;;5010935;28;21009;-48
2022/10/08 03:39:51;;;;;;;5.50;2.50;;;10.00;99.90;;;;;;5010776;28;20450;-50
2022/10/08 03:42:18;;;;;;;3.07;2.70;;;10.00;99.90;;;;;;5011277;28;20450;-48
2022/10/08 03:44:45;;;;;;;3.60;2.60;;;10.00;99.90;;;;;;5011036;28;20867;-48
2022/10/08 03:47:12;;;;;;;2.93;2.63;;;9.90;99.90;;;;;;5010603;28;20546;-50
2022/10/08 03:49:38;;;;;;;3.90;3.33;;;9.90;99.90;;;;;;5010226;28;20541;-50
2022/10/08 03:52:07;;;;;;;3.53;2.60;;;9.80;99.90;;;;;;5010763;28;20493;-48
2022/10/08 03:54:35;;;;;;;3.83;2.60;;;9.80;99.90;;;;;;5010451;28;20454;-50
2022/10/08 03:57:02;;;;;;;3.47;3.17;;;9.90;99.90;;;;;;5010528;28;20515;-48
2022/10/08 03:59:29;;;;;;;3.60;2.57;;;9.90;99.90;;;;;;5010989;28;20458;-50
2022/10/08 04:01:55;;;;;;;3.20;2.53;;;10.00;99.90;;;;;;5010736;28;20530;-48
2022/10/08 04:04:22;;;;;;;3.30;3.00;;;9.90;99.90;;;;;;5010442;28;20802;-47
2022/10/08 04:06:49;;;;;;;3.30;2.93;;;9.80;99.90;;;;;;5010374;28;20471;-48
2022/10/08 04:09:17;;;;;;;3.17;2.67;;;10.00;99.90;;;;;;5010379;28;20483;-48
2022/10/08 04:11:44;;;;;;;2.63;2.20;;;9.90;99.90;;;;;;5010361;28;20479;-48
2022/10/08 04:14:11;;;;;;;2.90;2.63;;;9.90;99.90;;;;;;5010432;28;20436;-48
2022/10/08 04:16:38;;;;;;;4.40;2.67;;;9.80;99.90;;;;;;5009996;28;20560;-49
2022/10/08 04:19:05;;;;;;;4.50;2.53;;;9.90;99.90;;;;;;5010268;28;20538;-48
2022/10/08 04:21:31;;;;;;;3.20;2.90;;;10.10;99.90;;;;;;5009836;28;21004;-47
2022/10/08 04:23:58;;;;;;;3.70;2.77;;;10.20;99.90;;;;;;5010368;28;20448;-48
2022/10/08 04:26:26;;;;;;;3.30;3.00;;;10.00;99.90;;;;;;5010212;28;20520;-48
2022/10/08 04:28:54;;;;;;;3.90;2.47;;;9.90;99.90;;;;;;5010212;28;21009;-47
2022/10/08 04:31:23;;;;;;;3.30;2.90;;;9.90;99.90;;;;;;5010114;28;20440;-49
2022/10/08 04:33:51;;;;;;;2.87;2.57;;;9.90;99.90;;;;;;5009704;28;20439;-48
2022/10/08 04:36:19;;;;;;;3.50;3.00;;;10.00;99.90;;;;;;5010356;28;20464;-47
2022/10/08 04:38:46;;;;;;;2.80;2.50;;;10.00;99.90;;;;;;5010255;28;20442;-47
2022/10/08 04:41:15;;;;;;;4.70;2.90;;;10.00;99.90;;;;;;5009998;28;20443;-49
2022/10/08 04:43:45;;;;;;;3.37;2.40;;;10.00;99.90;;;;;;5009881;28;20448;-48
2022/10/08 04:46:13;;;;;;;3.13;2.57;;;10.00;99.90;;;;;;5009575;28;20999;-48
2022/10/08 04:48:45;;;;;;;3.30;3.00;;;9.60;99.90;;;;;;5009959;28;20483;-47
2022/10/08 04:51:11;;;;;;;7.10;3.40;;;9.10;99.90;;;;;;5010058;28;20455;-48
2022/10/08 04:53:39;;;;;;;3.27;2.77;;;8.90;99.90;;;;;;5009907;28;20450;-48
2022/10/08 04:56:11;;;;;;;4.07;3.10;;;9.00;99.90;;;;;;5009639;28;20471;-48
2022/10/08 04:58:38;;;;;;;3.03;2.73;;;9.10;99.90;;;;;;5009815;28;20444;-48
2022/10/08 05:01:08;;;;;;;2.70;2.27;;;9.40;99.90;;;;;;5008797;28;20447;-48
2022/10/08 05:03:37;;;;;;;3.10;2.80;;;9.70;99.90;;;;;;5009758;28;20443;-48
2022/10/08 05:06:04;;;;;;;3.50;2.63;;;9.80;99.90;;;;;;5009731;28;20467;-48
2022/10/08 05:08:31;;;;;;;2.80;2.50;;;9.80;99.90;;;;;;5009647;28;20566;-48
2022/10/08 05:10:58;;;;;;;3.17;2.90;;;9.40;99.90;;;;;;5009499;28;20526;-48
2022/10/08 05:13:25;;;;;;;4.20;2.40;;;9.40;99.90;;;;;;5009040;28;20530;-50
2022/10/08 05:15:52;;;;;;;5.00;2.90;;;9.30;99.90;;;;;;5009542;28;20463;-49
2022/10/08 05:18:21;;;;;;;3.27;2.87;;;9.20;99.90;;;;;;5009631;28;20447;-48
2022/10/08 05:20:48;;;;;;;3.43;3.13;;;9.30;99.90;;;;;;5009501;28;20450;-48
2022/10/08 05:23:15;;;;;;;7.00;3.00;;;9.40;99.90;;;;;;5008856;28;20454;-48
2022/10/08 05:25:42;;;;;;;4.07;3.47;;;9.30;99.90;;;;;;5009112;28;20550;-47
2022/10/08 05:28:08;;;;;;;3.50;3.10;;;9.50;99.90;;;;;;5009291;28;21021;-50
2022/10/08 05:30:35;;;;;;;4.20;3.10;;;9.50;99.90;;;;;;5009163;28;21033;-48
2022/10/08 05:33:02;;;;;;;6.33;3.20;;;9.70;99.90;;;;;;5008926;28;20527;-50
2022/10/08 05:35:30;;;;;;;3.93;2.80;;;9.80;99.90;;;;;;5009197;28;20543;-48
2022/10/08 05:37:57;;;;;;;3.00;2.70;;;9.90;99.90;;;;;;5009553;28;20440;-48
2022/10/08 05:40:24;;;;;;;3.70;3.30;;;9.90;99.90;;;;;;5009280;28;20447;-47
2022/10/08 05:42:52;;;;;;;5.07;4.07;;;9.80;99.90;;;;;;5009024;28;20479;-47
2022/10/08 05:45:19;;;;;;;3.27;3.00;;;9.40;99.90;;;;;;5009083;28;20464;-48
2022/10/08 05:47:47;;;;;;;4.30;3.10;;;9.10;99.90;;;;;;5009277;28;20534;-48
2022/10/08 05:50:14;;;;;;;3.77;3.07;;;9.00;99.90;;;;;;5008927;28;20444;-48
2022/10/08 05:52:42;;;;;;;3.77;2.50;;;9.40;99.90;;;;;;5008785;28;20454;-48
2022/10/08 05:55:09;;;;;;;5.70;3.03;;;9.60;99.90;;;;;;5008708;28;20555;-47
2022/10/08 05:57:36;;;;;;;3.57;2.60;;;9.90;99.90;;;;;;5009958;28;20443;-49
2022/10/08 06:00:04;;;;;;;3.30;3.00;;;10.10;99.90;;;;;;5009176;28;20474;-48
2022/10/08 06:02:31;;;;;;;3.53;2.57;;;10.10;99.90;;;;;;5008827;28;20873;-48
2022/10/08 06:04:58;;;;;;;2.77;2.57;;;10.10;99.90;;;;;;5008451;28;20444;-49
2022/10/08 06:07:24;;;;;;;4.07;2.93;;;10.10;99.90;;;;;;5008787;28;20450;-50
2022/10/08 06:09:53;;;;;;;4.20;3.80;;;10.20;99.90;;;;;;5008784;28;20479;-47
2022/10/08 06:12:19;;;;;;;4.60;3.93;;;10.20;99.90;;;;;;5008733;28;20476;-48
2022/10/08 06:14:46;;;;;;;4.30;3.70;;;10.10;99.90;;;;;;5008184;28;20466;-48
2022/10/08 06:17:13;;;;;;;3.80;3.33;;;10.20;99.90;;;;;;5008448;28;20928;-49
2022/10/08 06:19:40;;;;;;;3.40;2.73;;;9.80;99.90;;;;;;5008496;28;20956;-50
2022/10/08 06:22:07;;;;;;;3.10;2.83;;;9.80;99.90;;;;;;5008367;28;20530;-49
2022/10/08 06:24:34;;;;;;;4.70;3.40;;;9.90;99.90;;;;;;5008415;28;20489;-50
2022/10/08 06:27:02;;;;;;;4.10;3.30;;;10.00;99.90;;;;;;5008517;28;20844;-50
2022/10/08 06:29:29;;;;;;;5.00;4.40;;;10.00;99.90;;;;;;5008374;28;20926;-50
2022/10/08 06:31:56;;;;;;;5.50;4.53;;;9.90;99.90;;;;;;5008470;28;21034;-53
2022/10/08 06:34:23;;;;;;;8.83;4.30;;;10.00;99.90;;;;;;5008799;28;20813;-50
2022/10/08 06:36:50;;;;;;;4.20;3.23;;;10.10;99.90;;;;;;5008852;28;20505;-50
2022/10/08 06:39:17;;;;;;;5.73;4.50;;;10.00;99.90;;;;;;5008970;28;20432;-52
2022/10/08 06:41:44;;;;;;;5.03;4.07;;;10.00;99.90;;;;;;5008584;28;20543;-50
2022/10/08 06:44:14;;;;;;;5.33;4.50;;;9.90;99.90;;;;;;5008119;28;20916;-50
2022/10/08 06:46:41;;;;;;;5.73;4.47;;;9.90;99.90;;;;;;5008270;28;20468;-50
2022/10/08 06:49:09;;;;;;;28.43;25.47;;;9.80;99.90;;;;;;5008232;28;20490;-50
2022/10/08 06:51:36;;;;;;;54.57;47.40;;;9.80;99.90;;;;;;5008191;28;20531;-50
2022/10/08 06:54:03;;;;;;;27.67;22.90;;;9.90;99.90;;;;;;5007754;28;20950;-53
2022/10/08 06:56:30;;;;;;;186.90;101.40;;;9.80;99.90;;;;;;5007827;28;20566;-50
2022/10/08 06:58:57;;;;;;;90.37;59.00;;;9.90;99.90;;;;;;5008129;28;20439;-50
2022/10/08 07:01:28;;;;;;;50.60;33.33;;;9.90;99.90;;;;;;5008493;28;20444;-50
2022/10/08 07:03:56;;;;;;;35.57;25.00;;;9.90;99.90;;;;;;5007770;28;20991;-51
2022/10/08 07:06:24;;;;;;;8.70;6.87;;;10.00;99.90;;;;;;5007962;28;20461;-50
2022/10/08 07:08:53;;;;;;;6.90;5.60;;;9.90;99.90;;;;;;5007739;28;20479;-50
2022/10/08 07:11:20;;;;;;;9.33;6.43;;;9.90;99.90;;;;;;5008013;28;20455;-50
2022/10/08 07:13:47;;;;;;;9.90;6.77;;;10.10;99.90;;;;;;5007790;28;20539;-48
2022/10/08 07:16:16;;;;;;;9.60;7.37;;;10.10;99.90;;;;;;5007901;28;20471;-48
2022/10/08 07:18:45;;;;;;;8.60;6.30;;;10.00;99.90;;;;;;5007875;28;20448;-47
2022/10/08 07:21:15;;;;;;;8.30;5.40;;;9.90;99.90;;;;;;5007459;28;20441;-48
2022/10/08 07:23:42;;;;;;;6.87;5.63;;;9.90;99.90;;;;;;5007681;28;20539;-48
2022/10/08 07:26:12;;;;;;;5.93;4.53;;;10.00;99.90;;;;;;5010989;28;20910;-47
2022/10/08 07:28:41;;;;;;;4.47;3.67;;;10.00;99.90;;;;;;5011153;28;20485;-48
2022/10/08 07:31:13;;;;;;;8.93;4.30;;;9.80;99.90;;;;;;5011144;28;20482;-48
2022/10/08 07:33:40;;;;;;;3.80;3.40;;;9.70;99.90;;;;;;5007662;28;20450;-51
2022/10/08 07:36:10;;;;;;;4.40;3.50;;;9.90;99.90;;;;;;5001186;28;20470;-48
2022/10/08 07:38:37;;;;;;;5.00;4.00;;;9.90;99.90;;;;;;5011331;28;20641;-47
2022/10/08 07:41:04;;;;;;;6.97;3.50;;;9.80;99.90;;;;;;5011020;28;20483;-47
2022/10/08 07:43:31;;;;;;;15.60;4.47;;;9.80;99.90;;;;;;5010572;28;20454;-48
2022/10/08 07:45:58;;;;;;;7.90;4.60;;;10.00;99.90;;;;;;5010732;28;20551;-49
2022/10/08 07:48:25;;;;;;;7.37;4.80;;;10.10;99.90;;;;;;5010421;28;20450;-50
2022/10/08 07:50:52;;;;;;;10.80;5.67;;;9.90;99.90;;;;;;5005718;28;20834;-48
2022/10/08 07:53:20;;;;;;;8.00;7.17;;;10.10;99.90;;;;;;5008989;28;20538;-48
2022/10/08 07:55:47;;;;;;;14.80;7.60;;;10.00;99.90;;;;;;5011706;28;20476;-48
2022/10/08 07:58:14;;;;;;;10.17;5.60;;;10.20;99.90;;;;;;5009638;28;21196;-49
2022/10/08 08:00:41;;;;;;;7.57;5.00;;;10.00;99.90;;;;;;5010617;28;20448;-46
2022/10/08 08:03:12;;;;;;;6.80;3.93;;;10.10;99.90;;;;;;5005175;28;20444;-49
2022/10/08 08:05:39;;;;;;;4.03;3.70;;;10.40;99.90;;;;;;5008459;28;20547;-48
2022/10/08 08:08:06;;;;;;;8.47;4.60;;;10.60;99.90;;;;;;4990803;28;20440;-48
2022/10/08 08:10:34;;;;;;;15.50;5.40;;;11.00;99.90;;;;;;4994749;28;21003;-48
2022/10/08 08:13:01;;;;;;;7.73;5.07;;;11.10;99.90;;;;;;5002004;28;21009;-48
2022/10/08 08:15:28;;;;;;;5.77;3.80;;;11.30;99.90;;;;;;4994436;28;20548;-48
2022/10/08 08:17:54;;;;;;;6.83;5.57;;;11.40;99.90;;;;;;4990011;28;20456;-48
2022/10/08 08:20:21;;;;;;;6.97;6.27;;;11.60;99.90;;;;;;4990439;28;20535;-48
2022/10/08 08:22:48;;;;;;;8.50;4.90;;;11.60;99.90;;;;;;4990709;28;20548;-49
2022/10/08 08:25:15;;;;;;;183.40;47.30;;;11.70;99.90;;;;;;4989212;28;20462;-48
2022/10/08 08:27:43;;;;;;;7.10;5.87;;;11.80;99.90;;;;;;4987827;28;20445;-48
2022/10/08 08:30:11;;;;;;;7.07;6.37;;;11.70;99.90;;;;;;4989713;28;20572;-49
2022/10/08 08:32:39;;;;;;;8.00;6.40;;;11.70;99.90;;;;;;4990280;28;20450;-48
2022/10/08 08:35:07;;;;;;;7.43;5.50;;;11.90;99.90;;;;;;4989973;28;20446;-50
2022/10/08 08:37:33;;;;;;;13.40;7.57;;;11.90;99.90;;;;;;4990154;28;20546;-50
2022/10/08 08:40:00;;;;;;;5.60;5.10;;;12.10;99.90;;;;;;4990642;28;20453;-48
2022/10/08 08:42:52;;;;;;;8.13;5.97;;;12.10;99.90;;;;;;4990472;28;20449;-48
2022/10/08 08:45:26;;;;;;;5.83;5.33;;;12.30;99.90;;;;;;4990190;28;20471;-48
2022/10/08 08:48:01;;;;;;;6.90;5.40;;;12.40;99.90;;;;;;4990378;28;20455;-49
2022/10/08 08:50:32;;;;;;;6.33;4.50;;;12.50;99.90;;;;;;4990206;28;20478;-48
2022/10/08 08:52:59;;;;;;;4.83;4.40;;;12.60;99.90;;;;;;4988935;28;20451;-50
2022/10/08 08:55:34;;;;;;;4.33;3.93;;;12.60;99.90;;;;;;4988576;28;20996;-48
2022/10/08 08:58:08;;;;;;;4.73;4.10;;;12.70;99.90;;;;;;4988830;28;20934;-48
2022/10/08 09:00:39;;;;;;;4.80;4.30;;;12.80;99.90;;;;;;4988602;28;21239;-48
2022/10/08 09:03:14;;;;;;;6.70;4.60;;;12.90;99.90;;;;;;4988773;28;20530;-48
2022/10/08 09:05:44;;;;;;;13.80;7.27;;;13.00;99.90;;;;;;4988714;28;21085;-49
2022/10/08 09:08:15;;;;;;;30.07;11.53;;;13.00;99.90;;;;;;4989541;28;20463;-49
2022/10/08 09:10:46;;;;;;;97.70;27.63;;;13.40;99.90;;;;;;4989735;28;20576;-49
2022/10/08 09:13:17;;;;;;;4.27;3.87;;;13.60;99.90;;;;;;4989807;28;20547;-48
2022/10/08 09:15:46;;;;;;;21.40;8.23;;;13.40;99.90;;;;;;4990007;28;20497;-52
2022/10/08 09:18:15;;;;;;;20.73;10.23;;;13.50;99.90;;;;;;4989741;28;20453;-50
2022/10/08 09:20:42;;;;;;;4.50;4.10;;;13.50;99.90;;;;;;4989486;28;20442;-48
2022/10/08 09:23:15;;;;;;;44.87;14.57;;;13.40;99.90;;;;;;4989779;28;20505;-48
2022/10/08 09:25:43;;;;;;;22.07;9.30;;;13.60;99.90;;;;;;4989366;28;20894;-49
2022/10/08 09:28:10;;;;;;;71.60;20.60;;;13.90;99.90;;;;;;4989555;28;20448;-49
2022/10/08 09:30:38;;;;;;;18.33;8.50;;;14.20;99.90;;;;;;4989431;28;20489;-49
2022/10/08 09:33:28;;;;;;;7.90;4.93;;;14.20;99.90;;;;;;4989429;28;20824;-48
2022/10/08 09:35:55;;;;;;;34.73;5.87;;;14.10;99.90;;;;;;4989812;28;20468;-49
2022/10/08 09:38:25;;;;;;;12.70;4.47;;;14.10;99.90;;;;;;4989559;28;20452;-50
2022/10/08 09:41:17;;;;;;;8.87;3.63;;;14.00;99.90;;;;;;4989614;28;20493;-49
2022/10/08 09:43:44;;;;;;;3.60;2.90;;;14.00;99.90;;;;;;4988999;28;20447;-49
2022/10/08 09:46:27;;;;;;;3.97;3.57;;;14.10;99.90;;;;;;4988931;28;20525;-49
2022/10/08 09:48:56;;;;;;;3.37;2.97;;;14.10;99.90;;;;;;4989048;28;20443;-51
2022/10/08 09:51:23;;;;;;;4.63;4.13;;;14.30;99.90;;;;;;4989085;28;20547;-50
2022/10/08 09:53:54;;;;;;;5.17;3.90;;;14.30;99.90;;;;;;4987576;28;20522;-49
2022/10/08 09:56:26;;;;;;;4.03;3.17;;;14.40;99.90;;;;;;4987517;28;20568;-50
2022/10/08 09:58:56;;;;;;;8.23;3.87;;;14.60;99.90;;;;;;4988036;28;20444;-50
2022/10/08 10:01:23;;;;;;;6.47;3.73;;;14.60;99.90;;;;;;4987723;28;20537;-49
2022/10/08 10:03:54;;;;;;;10.00;3.87;;;14.70;99.90;;;;;;4987477;28;20449;-48
2022/10/08 10:06:32;;;;;;;8.57;4.03;;;14.80;99.90;;;;;;4987776;28;20492;-48
2022/10/08 10:09:21;;;;;;;13.43;7.80;;;14.80;99.90;;;;;;4988954;28;20958;-49
2022/10/08 10:11:52;;;;;;;12.57;5.10;;;14.70;99.90;;;;;;4988102;28;20444;-49
2022/10/08 10:14:25;;;;;;;5.10;4.13;;;15.00;99.90;;;;;;4988726;28;20538;-49
2022/10/08 10:16:59;;;;;;;16.60;4.80;;;15.00;99.90;;;;;;4988779;28;20841;-48
2022/10/08 10:19:32;;;;;;;6.83;3.70;;;15.10;99.90;;;;;;4987684;28;20553;-51
2022/10/08 10:22:05;;;;;;;7.57;3.80;;;15.30;99.90;;;;;;4988379;28;21028;-48
2022/10/08 10:24:49;;;;;;;6.80;3.70;;;15.30;99.90;;;;;;4988556;28;20897;-48
2022/10/08 10:27:23;;;;;;;3.97;3.57;;;15.30;99.90;;;;;;4988431;28;20468;-48
2022/10/08 10:29:57;;;;;;;5.40;3.60;;;15.40;99.90;;;;;;4988603;28;20479;-50
2022/10/08 10:32:29;;;;;;;4.40;4.00;;;15.40;99.90;;;;;;4987499;28;20447;-48
2022/10/08 10:35:04;;;;;;;6.77;4.03;;;15.40;99.90;;;;;;4987028;28;20543;-49
2022/10/08 10:37:48;;;;;;;5.03;3.40;;;15.50;99.90;;;;;;4987639;28;20444;-49
2022/10/08 10:40:28;;;;;;;10.93;4.67;;;15.60;99.90;;;;;;4987853;28;20470;-49
2022/10/08 10:43:04;;;;;;;3.40;3.10;;;15.70;99.90;;;;;;4987462;28;20448;-49
2022/10/08 10:45:34;;;;;;;9.10;4.40;;;15.60;99.90;;;;;;4987137;28;21043;-47
2022/10/08 10:48:02;;;;;;;13.10;4.53;;;15.60;99.90;;;;;;4987117;28;20451;-49
2022/10/08 10:50:37;;;;;;;12.07;4.47;;;15.60;99.90;;;;;;4987396;28;20935;-49
2022/10/08 10:53:15;;;;;;;16.90;8.23;;;15.70;99.90;;;;;;4987782;28;20530;-49
2022/10/08 10:55:53;;;;;;;10.67;4.50;;;15.90;99.90;;;;;;4988152;28;21000;-48
2022/10/08 10:58:35;;;;;;;11.00;4.97;;;16.00;99.90;;;;;;4988362;28;20958;-49
2022/10/08 11:01:09;;;;;;;5.90;4.00;;;16.10;99.90;;;;;;4991650;28;20484;-49
2022/10/08 11:03:43;;;;;;;13.60;4.63;;;15.90;99.90;;;;;;4991802;28;20448;-47
2022/10/08 11:06:32;;;;;;;12.83;4.83;;;16.10;99.90;;;;;;4991989;28;21041;-49
2022/10/08 11:09:05;;;;;;;7.00;4.53;;;16.20;99.90;;;;;;4992207;28;20539;-51
2022/10/08 11:11:38;;;;;;;5.77;3.63;;;16.40;99.90;;;;;;4991810;28;21013;-49
2022/10/08 11:14:23;;;;;;;8.10;4.50;;;16.30;99.90;;;;;;4991376;28;20899;-49
2022/10/08 11:17:04;;;;;;;10.33;5.30;;;16.40;99.90;;;;;;4991374;28;20470;-48
2022/10/08 11:19:41;;;;;;;4.83;4.40;;;16.40;99.90;;;;;;4991608;28;20534;-49
2022/10/08 11:22:16;;;;;;;3.93;3.43;;;16.40;99.90;;;;;;4991507;28;20448;-48
2022/10/08 11:25:05;;;;;;;4.07;3.67;;;16.60;99.90;;;;;;4991438;28;20531;-49
2022/10/08 11:27:45;;;;;;;6.50;4.33;;;16.60;99.90;;;;;;4991877;28;20900;-48
2022/10/08 11:30:14;;;;;;;5.03;4.33;;;16.70;99.90;;;;;;4991845;28;20669;-49
2022/10/08 11:32:44;;;;;;;3.77;3.37;;;16.80;99.90;;;;;;4991699;28;20476;-49
2022/10/08 11:35:27;;;;;;;5.13;3.37;;;16.80;99.90;;;;;;4991085;28;20562;-49
2022/10/08 11:38:01;;;;;;;4.07;2.90;;;16.90;99.90;;;;;;4991646;28;20527;-49
2022/10/08 11:40:37;;;;;;;4.70;2.80;;;16.90;99.90;;;;;;4991743;28;20531;-49
2022/10/08 11:43:09;;;;;;;8.67;4.30;;;16.90;99.90;;;;;;4991358;28;20458;-49
2022/10/08 11:45:38;;;;;;;5.30;4.23;;;16.90;99.90;;;;;;4989819;28;20541;-49
2022/10/08 11:48:30;;;;;;;4.70;4.20;;;16.90;99.90;;;;;;4989731;28;21034;-51
2022/10/08 11:51:36;;;;;;;7.73;4.90;;;16.70;99.90;;;;;;4989640;28;20494;-49
2022/10/08 11:54:07;;;;;;;6.03;3.87;;;16.70;99.90;;;;;;4989570;28;20454;-49
2022/10/08 11:56:37;;;;;;;4.93;3.60;;;17.10;99.90;;;;;;4990516;28;20480;-49
2022/10/08 11:59:16;;;;;;;7.00;4.50;;;17.10;99.90;;;;;;4990611;28;20444;-49
2022/10/08 12:01:54;;;;;;;7.10;4.60;;;17.10;99.90;;;;;;4990419;28;20440;-50
2022/10/08 12:04:23;;;;;;;6.60;4.80;;;17.00;99.90;;;;;;4991032;28;20452;-50
2022/10/08 12:07:02;;;;;;;7.00;4.10;;;17.10;99.90;;;;;;4989906;28;20474;-48
2022/10/08 12:10:22;;;;;;;8.50;4.87;;;17.20;99.90;;;;;;4989838;28;20539;-51
2022/10/08 12:13:28;;;;;;;5.27;4.03;;;17.10;99.90;;;;;;4989310;28;20441;-49
2022/10/08 12:16:03;;;;;;;7.63;4.90;;;17.00;99.90;;;;;;4994735;28;20917;-49
2022/10/08 12:18:32;;;;;;;5.30;4.80;;;17.10;99.90;;;;;;4989456;28;20462;-49
2022/10/08 12:21:36;;;;;;;5.17;4.67;;;17.10;99.90;;;;;;4989370;28;20436;-48
2022/10/08 12:24:45;;;;;;;5.10;4.50;;;17.20;99.90;;;;;;4990605;28;20443;-48
2022/10/08 12:27:36;;;;;;;4.40;4.00;;;17.30;99.90;;;;;;4990351;28;20549;-48
2022/10/08 12:30:06;;;;;;;4.90;4.03;;;17.20;99.90;;;;;;4990468;28;20448;-49
2022/10/08 12:32:53;;;;;;;5.07;4.57;;;17.40;99.90;;;;;;4990939;28;20453;-45
2022/10/08 12:35:23;;;;;;;5.50;4.63;;;17.50;99.90;;;;;;4990245;28;20831;-48
2022/10/08 12:38:07;;;;;;;15.53;4.70;;;17.40;99.90;;;;;;4990207;28;20949;-49
2022/10/08 12:40:40;;;;;;;5.60;4.47;;;17.30;99.90;;;;;;4989896;28;20888;-48
2022/10/08 12:43:20;;;;;;;5.20;4.30;;;17.30;99.90;;;;;;4990736;28;20472;-49
2022/10/08 12:45:54;;;;;;;12.83;5.90;;;17.60;99.90;;;;;;4990379;28;20817;-49
2022/10/08 12:48:34;;;;;;;9.43;7.43;;;17.70;99.90;;;;;;4990563;28;20444;-49
2022/10/08 12:51:13;;;;;;;5.30;4.90;;;17.70;99.90;;;;;;4990197;28;21047;-49
2022/10/08 12:53:44;;;;;;;5.50;5.00;;;17.70;99.90;;;;;;4989644;28;21000;-49
2022/10/08 12:56:15;;;;;;;5.10;4.60;;;17.80;99.90;;;;;;4988802;28;20485;-49
2022/10/08 12:58:45;;;;;;;11.17;5.17;;;17.90;99.90;;;;;;4989401;28;20448;-52
2022/10/08 13:01:15;;;;;;;4.60;4.30;;;17.70;99.90;;;;;;4989262;28;20480;-49
2022/10/08 13:03:44;;;;;;;8.43;4.70;;;17.60;99.90;;;;;;4988467;28;20447;-49
2022/10/08 13:06:16;;;;;;;5.77;4.33;;;17.50;99.90;;;;;;4989872;28;20477;-49
2022/10/08 13:08:43;;;;;;;5.63;5.03;;;17.60;99.90;;;;;;4989051;28;20480;-49